createdAt,value
2018-06-19T00:00:13.774Z,57.10
2018-06-19T00:05:17.784Z,57.50
2018-06-19T00:10:23.092Z,57.60
2018-06-19T00:15:27.005Z,57.70
2018-06-19T00:20:30.714Z,58.10
2018-06-19T00:25:34.432Z,58.30
2018-06-19T00:30:39.601Z,58.50
2018-06-19T00:35:43.270Z,58.70
2018-06-19T00:40:47.284Z,58.80
2018-06-19T00:45:50.942Z,58.90
2018-06-19T00:50:54.588Z,59.10
2018-06-19T00:56:09.986Z,59.10
2018-06-19T01:01:13.635Z,59.50
2018-06-19T01:06:18.136Z,59.50
2018-06-19T01:11:21.813Z,59.70
2018-06-19T01:16:25.497Z,59.80
2018-06-19T01:21:29.950Z,60.10
2018-06-19T01:26:33.621Z,60.40
2018-06-19T01:31:37.264Z,60.60
2018-06-19T01:36:41.147Z,60.90
2018-06-19T01:41:45.026Z,60.70
2018-06-19T01:46:49.351Z,60.60
2018-06-19T01:51:54.069Z,61.00
2018-06-19T01:56:57.700Z,60.60
2018-06-19T02:02:01.371Z,61.10
2018-06-19T02:07:05.233Z,61.50
2018-06-19T02:12:09.486Z,61.50
2018-06-19T02:17:14.085Z,61.40
2018-06-19T02:22:17.728Z,61.40
2018-06-19T02:27:21.362Z,61.30
2018-06-19T02:32:25.378Z,61.50
2018-06-19T02:37:29.364Z,61.60
2018-06-19T02:42:33.934Z,61.30
2018-06-19T02:47:37.570Z,61.30
2018-06-19T02:52:41.573Z,61.00
2018-06-19T02:57:46.204Z,61.40
2018-06-19T03:02:50.239Z,61.50
2018-06-19T03:07:53.880Z,62.10
2018-06-19T03:12:57.844Z,62.40
2018-06-19T03:18:02.346Z,62.20
2018-06-19T03:23:06.028Z,62.60
2018-06-19T03:28:10.619Z,62.90
2018-06-19T03:33:14.805Z,62.90
2018-06-19T03:38:18.480Z,63.30
2018-06-19T03:43:22.496Z,63.70
2018-06-19T03:48:26.744Z,63.90
2018-06-19T03:53:30.386Z,64.20
2018-06-19T03:58:34.368Z,64.30
2018-06-19T04:03:39.779Z,64.50
2018-06-19T04:08:43.460Z,64.90
2018-06-19T04:13:47.092Z,65.40
2018-06-19T04:18:51.606Z,65.70
2018-06-19T04:23:55.287Z,65.80
2018-06-19T04:28:58.988Z,65.90
2018-06-19T04:34:03.154Z,66.00
2018-06-19T04:39:09.953Z,65.70
2018-06-19T04:44:13.616Z,65.50
2018-06-19T04:49:17.607Z,65.40
2018-06-19T04:54:21.235Z,65.20
2018-06-19T04:59:24.875Z,65.60
2018-06-19T05:04:28.829Z,65.70
2018-06-19T05:09:32.704Z,64.40
2018-06-19T05:14:38.525Z,65.20
2018-06-19T05:19:42.324Z,64.50
2018-06-19T05:24:46.430Z,64.50
2018-06-19T05:29:50.239Z,64.50
2018-06-19T05:34:53.906Z,63.80
2018-06-19T05:39:59.437Z,63.70
2018-06-19T05:45:03.137Z,62.80
2018-06-19T05:50:07.137Z,62.70
2018-06-19T05:55:10.821Z,63.90
2018-06-19T06:00:14.837Z,64.30
2018-06-19T06:05:18.722Z,64.00
2018-06-19T06:10:22.854Z,64.60
2018-06-19T06:15:26.512Z,65.30
2018-06-19T06:20:30.156Z,65.00
2018-06-19T06:25:33.901Z,65.00
2018-06-19T06:30:38.045Z,64.80
2018-06-19T06:35:43.430Z,63.70
2018-06-19T06:40:47.117Z,63.20
2018-06-19T06:45:51.784Z,62.90
2018-06-19T06:50:55.769Z,62.40
2018-06-19T06:55:59.434Z,62.50
2018-06-19T07:01:03.108Z,61.80
2018-06-19T07:06:06.791Z,60.90
2018-06-19T07:11:10.458Z,60.00
2018-06-19T07:16:14.122Z,59.90
2018-06-19T07:21:20.801Z,59.40
2018-06-19T07:26:24.842Z,56.80
2018-06-19T07:31:29.071Z,56.20
2018-06-19T07:36:33.517Z,55.30
2018-06-19T07:41:37.312Z,54.70
2018-06-19T07:46:41.889Z,54.00
2018-06-19T07:51:45.608Z,53.80
2018-06-19T07:56:49.267Z,54.80
2018-06-19T08:01:53.442Z,54.20
2018-06-19T08:06:57.278Z,54.30
2018-06-19T08:12:02.778Z,52.70
2018-06-19T08:17:07.157Z,52.90
2018-06-19T08:22:10.827Z,51.90
2018-06-19T08:27:14.528Z,52.40
2018-06-19T08:32:20.367Z,52.30
2018-06-19T08:37:24.783Z,52.60
2018-06-19T08:42:28.440Z,52.30
2018-06-19T08:47:32.096Z,51.90
2018-06-19T08:52:35.776Z,51.50
2018-06-19T08:57:39.685Z,50.90
2018-06-19T09:02:43.628Z,49.80
2018-06-19T09:07:47.351Z,49.40
2018-06-19T09:12:51.012Z,50.50
2018-06-19T09:17:54.688Z,49.50
2018-06-19T09:23:00.257Z,50.00
2018-06-19T09:28:05.509Z,49.60
2018-06-19T09:33:09.176Z,48.30
2018-06-19T09:38:12.849Z,49.10
2018-06-19T09:43:17.883Z,46.90
2018-06-19T09:48:32.771Z,46.60
2018-06-19T09:53:36.570Z,45.90
2018-06-19T09:58:40.462Z,45.70
2018-06-19T10:03:44.172Z,45.70
2018-06-19T10:08:47.933Z,45.90
2018-06-19T10:13:51.588Z,46.60
2018-06-19T10:18:56.516Z,46.70
2018-06-19T10:24:00.293Z,45.70
2018-06-19T10:29:04.558Z,46.10
2018-06-19T10:34:08.832Z,44.40
2018-06-19T10:39:12.881Z,44.60
2018-06-19T10:44:16.808Z,44.60
2018-06-19T10:49:20.513Z,44.40
2018-06-19T10:54:24.208Z,42.10
2018-06-19T10:59:28.666Z,42.10
2018-06-19T11:04:33.177Z,42.10
2018-06-19T11:09:36.792Z,43.00
2018-06-19T11:14:40.572Z,42.20
2018-06-19T11:19:44.282Z,41.50
2018-06-19T11:24:47.970Z,41.80
2018-06-19T11:29:52.140Z,41.50
2018-06-19T11:34:55.820Z,40.30
2018-06-19T11:39:59.580Z,40.60
2018-06-19T11:50:06.925Z,40.50
2018-06-19T11:55:11.465Z,38.10
2018-06-19T12:00:15.238Z,38.10
2018-06-19T12:05:19.203Z,38.40
2018-06-19T12:10:22.996Z,38.70
2018-06-19T12:15:27.216Z,38.10
2018-06-19T12:25:35.056Z,37.10
2018-06-19T12:30:38.716Z,35.60
2018-06-19T12:35:42.509Z,37.90
2018-06-19T12:40:46.211Z,36.20
2018-06-19T12:45:50.134Z,34.50
2018-06-19T12:52:08.947Z,35.70
2018-06-19T12:57:12.740Z,32.20
2018-06-19T13:02:16.428Z,32.70
2018-06-19T13:07:20.817Z,33.80
2018-06-19T13:12:36.174Z,33.70
2018-06-19T13:17:50.987Z,33.10
2018-06-19T13:22:56.365Z,33.00
2018-06-19T13:28:00.022Z,32.70
2018-06-19T13:33:03.709Z,33.00
2018-06-19T13:38:08.166Z,31.20
2018-06-19T13:44:22.531Z,31.90
2018-06-19T13:49:26.225Z,30.90
2018-06-19T13:54:31.703Z,30.70
2018-06-19T13:59:35.862Z,30.80
2018-06-19T14:04:39.553Z,30.70
2018-06-19T14:09:54.497Z,30.90
2018-06-19T14:14:58.533Z,29.80
2018-06-19T14:20:02.190Z,30.00
2018-06-19T14:25:06.160Z,31.00
2018-06-19T14:30:09.866Z,30.30
2018-06-19T14:35:14.211Z,29.50
2018-06-19T14:40:18.127Z,29.70
2018-06-19T14:45:21.791Z,30.40
2018-06-19T14:50:25.436Z,30.10
2018-06-19T14:55:29.088Z,29.90
2018-06-19T15:00:32.737Z,29.20
2018-06-19T15:05:36.573Z,29.80
2018-06-19T15:10:40.226Z,29.00
2018-06-19T15:15:44.196Z,29.20
2018-06-19T15:20:48.180Z,29.30
2018-06-19T15:25:51.887Z,29.60
2018-06-19T15:30:55.890Z,29.30
2018-06-19T15:35:59.527Z,28.10
2018-06-19T15:41:05.041Z,28.90
2018-06-19T15:46:09.202Z,28.10
2018-06-19T15:51:13.542Z,28.50
2018-06-19T15:56:17.200Z,28.80
2018-06-19T16:01:20.819Z,28.00
2018-06-19T16:06:24.491Z,29.40
2018-06-19T16:11:28.527Z,29.40
2018-06-19T16:16:32.884Z,29.20
2018-06-19T16:21:36.590Z,28.50
2018-06-19T16:26:40.263Z,29.10
2018-06-19T16:31:44.600Z,28.90
2018-06-19T16:36:48.353Z,28.80
2018-06-19T16:41:52.260Z,28.90
2018-06-19T16:46:56.808Z,28.70
2018-06-19T16:52:00.996Z,28.70
2018-06-19T16:57:04.816Z,30.10
2018-06-19T17:02:10.346Z,30.10
2018-06-19T17:07:14.512Z,30.40
2018-06-19T17:12:18.263Z,30.00
2018-06-19T17:17:22.550Z,29.60
2018-06-19T17:27:29.828Z,32.20
2018-06-19T17:32:33.582Z,30.80
2018-06-19T17:37:37.259Z,30.80
2018-06-19T17:42:40.937Z,31.40
2018-06-19T17:47:44.649Z,31.00
2018-06-19T17:52:48.588Z,32.10
2018-06-19T17:57:52.616Z,32.00
2018-06-19T18:02:56.287Z,31.30
2018-06-19T18:13:03.260Z,32.30
2018-06-19T18:18:07.341Z,32.30
2018-06-19T18:23:10.991Z,31.90
2018-06-19T18:28:14.695Z,34.20
2018-06-19T18:33:18.329Z,34.60
2018-06-19T18:38:21.980Z,36.20
2018-06-19T18:43:25.628Z,37.20
2018-06-19T18:48:29.273Z,38.20
2018-06-19T18:53:32.911Z,39.10
2018-06-19T18:58:37.300Z,39.30
2018-06-19T19:03:42.839Z,39.70
2018-06-19T19:08:46.512Z,40.20
2018-06-19T19:13:50.488Z,41.00
2018-06-19T19:24:03.877Z,42.60
2018-06-19T19:29:12.810Z,43.50
2018-06-19T19:34:18.241Z,44.30
2018-06-19T19:39:24.632Z,44.80
2018-06-19T19:44:28.788Z,46.00
2018-06-19T19:49:33.361Z,46.30
2018-06-19T19:54:39.899Z,46.60
2018-06-19T19:59:44.013Z,47.20
2018-06-19T20:04:47.694Z,47.50
2018-06-19T20:09:51.645Z,48.20
2018-06-19T20:14:55.295Z,48.50
2018-06-19T20:19:59.711Z,48.40
2018-06-19T20:25:03.434Z,48.80
2018-06-19T20:30:08.539Z,49.20
2018-06-19T20:35:12.213Z,49.10
2018-06-19T20:40:15.869Z,49.30
2018-06-19T20:45:22.350Z,49.50
2018-06-19T20:50:26.015Z,49.70
2018-06-19T20:55:29.720Z,49.80
2018-06-19T21:00:33.384Z,50.20
2018-06-19T21:05:37.074Z,50.20
2018-06-19T21:10:40.875Z,50.20
2018-06-19T21:15:44.536Z,50.50
2018-06-19T21:20:48.507Z,50.70
2018-06-19T21:25:54.942Z,50.80
2018-06-19T21:31:01.732Z,50.70
2018-06-19T21:36:08.511Z,50.90
2018-06-19T21:41:14.277Z,51.40
2018-06-19T21:46:20.531Z,51.50
2018-06-19T21:51:26.125Z,51.80
2018-06-19T21:56:31.856Z,52.20
2018-06-19T22:01:37.991Z,52.70
2018-06-19T22:06:44.413Z,53.30
2018-06-19T22:11:50.483Z,53.90
2018-06-19T22:16:56.666Z,54.00
2018-06-19T22:22:03.618Z,54.40
2018-06-19T22:27:09.545Z,54.30
2018-06-19T22:32:17.428Z,54.00
2018-06-19T22:37:23.317Z,54.50
2018-06-19T22:42:29.059Z,54.90
2018-06-19T22:47:34.617Z,54.00
2018-06-19T22:52:40.389Z,54.50
2018-06-19T22:57:47.194Z,54.50
2018-06-19T23:02:51.907Z,54.40
2018-06-19T23:07:56.959Z,54.80
2018-06-19T23:13:02.089Z,55.40
2018-06-19T23:18:05.723Z,55.20
2018-06-19T23:23:09.482Z,56.00
2018-06-19T23:28:13.368Z,55.90
2018-06-19T23:33:17.765Z,56.30
2018-06-19T23:38:21.514Z,56.30
2018-06-19T23:43:25.192Z,56.40
2018-06-19T23:48:28.855Z,57.10
2018-06-19T23:53:32.480Z,56.60
2018-06-19T23:58:36.307Z,57.00
